createdAt,value
2018-02-23T00:00:58.796Z,21.2
2018-02-23T00:10:59.573Z,19.4
2018-02-23T00:20:59.461Z,20.6
2018-02-23T00:30:59.196Z,19.3
2018-02-23T00:40:58.963Z,19.1
2018-02-23T00:50:58.765Z,21.9
2018-02-23T01:00:59.508Z,22.6
2018-02-23T01:10:59.272Z,21.9
2018-02-23T01:20:59.151Z,21.0
2018-02-23T01:30:58.923Z,21.6
2018-02-23T01:40:58.674Z,23.5
2018-02-23T01:50:59.427Z,28.3
2018-02-23T02:00:59.164Z,20.1
2018-02-23T02:10:58.846Z,26.8
2018-02-23T02:20:58.659Z,22.4
2018-02-23T02:30:59.400Z,26.4
2018-02-23T02:40:59.097Z,25.5
2018-02-23T02:50:58.810Z,28.4
2018-02-23T03:00:59.549Z,27.1
2018-02-23T03:10:59.264Z,21.0
2018-02-23T03:20:59.116Z,26.2
2018-02-23T03:30:58.864Z,26.2
2018-02-23T03:40:59.602Z,26.9
2018-02-23T03:50:59.340Z,21.7
2018-02-23T04:00:59.064Z,29.0
2018-02-23T04:10:58.783Z,27.1
2018-02-23T04:20:58.628Z,25.8
2018-02-23T04:30:59.325Z,25.7
2018-02-23T04:40:59.124Z,25.8
2018-02-23T04:50:58.930Z,26.4
2018-02-23T05:00:58.760Z,25.6
2018-02-23T05:10:59.487Z,20.1
2018-02-23T05:20:59.336Z,22.5
2018-02-23T05:30:59.028Z,22.5
2018-02-23T05:40:58.747Z,25.5
2018-02-23T05:50:59.498Z,26.0
2018-02-23T06:00:59.216Z,27.3
2018-02-23T06:10:58.930Z,27.5
2018-02-23T06:20:58.773Z,26.0
2018-02-23T06:30:59.500Z,28.6
2018-02-23T06:40:59.224Z,28.1
2018-02-23T06:50:58.958Z,27.3
2018-02-23T07:00:58.673Z,26.7
2018-02-23T07:10:59.466Z,31.2
2018-02-23T07:20:59.290Z,30.6
2018-02-23T07:30:59.254Z,28.0
2018-02-23T07:40:59.004Z,30.0
2018-02-23T07:50:58.744Z,26.9
2018-02-23T08:00:59.482Z,25.8
2018-02-23T08:10:59.126Z,29.6
2018-02-23T08:20:58.963Z,20.9
2018-02-23T08:30:58.686Z,26.4
2018-02-23T08:40:59.380Z,25.2
2018-02-23T08:50:59.112Z,21.4
2018-02-23T09:00:58.825Z,23.0
2018-02-23T09:10:59.547Z,22.0
2018-02-23T09:20:59.435Z,19.5
2018-02-23T09:30:59.147Z,21.7
2018-02-23T09:40:58.890Z,18.4
2018-02-23T09:50:58.672Z,14.4
2018-02-23T10:00:59.423Z,26.4
2018-02-23T10:10:59.183Z,24.7
2018-02-23T10:20:59.071Z,23.5
2018-02-23T10:30:58.837Z,21.4
2018-02-23T10:40:59.591Z,18.1
2018-02-23T10:50:59.359Z,21.8
2018-02-23T11:00:59.115Z,20.3
2018-02-23T11:10:58.867Z,23.7
2018-02-23T11:20:58.773Z,17.8
2018-02-23T11:30:59.537Z,15.7
2018-02-23T11:40:59.291Z,18.3
2018-02-23T11:50:59.081Z,20.3
2018-02-23T12:00:58.826Z,21.0
2018-02-23T12:10:59.520Z,17.5
2018-02-23T12:20:59.430Z,19.2
2018-02-23T17:43:06.154Z,30.2
2018-02-23T17:50:59.072Z,28.6
2018-02-23T18:00:59.097Z,26.7
2018-02-23T18:10:58.885Z,29.4
2018-02-23T18:20:58.770Z,30.1
2018-02-23T18:30:59.460Z,30.0
2018-02-23T18:40:59.219Z,32.0
2018-02-23T18:50:58.925Z,30.2
2018-02-23T19:00:58.697Z,31.9
2018-02-23T19:10:59.487Z,31.6
2018-02-23T19:20:59.242Z,31.4
2018-02-23T19:30:58.911Z,32.1
2018-02-23T19:40:58.636Z,29.4
2018-02-23T19:50:59.442Z,32.1
2018-02-23T20:00:59.434Z,34.1
2018-02-23T20:10:59.368Z,34.2
2018-02-23T20:20:59.392Z,32.5
2018-02-23T20:30:59.355Z,34.9
2018-02-23T20:40:59.238Z,36.5
2018-02-23T20:50:59.584Z,38.0
2018-02-23T21:00:59.696Z,37.7
2018-02-23T21:10:59.615Z,43.3
2018-02-23T21:20:59.523Z,38.7
2018-02-23T21:30:59.238Z,40.8
2018-02-23T21:40:58.999Z,46.4
2018-02-23T21:50:58.708Z,41.9
2018-02-23T22:00:59.469Z,46.3
2018-02-23T22:10:59.200Z,52.1
2018-02-23T22:20:59.018Z,56.5
2018-02-23T22:30:58.775Z,56.0
2018-02-23T22:40:59.522Z,50.9
2018-02-23T22:50:59.289Z,46.4
2018-02-23T23:00:58.942Z,43.8
2018-02-23T23:10:58.678Z,39.7
2018-02-23T23:20:59.505Z,45.2
2018-02-23T23:30:59.161Z,48.0
2018-02-23T23:40:58.832Z,57.3
2018-02-23T23:50:59.555Z,55.2
